sensor_id;sensor_type;location;lat;lon;timestamp;pressure;altitude;pressure_sealevel;temperature;humidity
75938;BME280;64615;32.062;34.834;2023-07-28T00:00:42;100169.06;;;28.25;56.95
75938;BME280;64615;32.062;34.834;2023-07-28T00:03:08;100167.97;;;28.26;56.94
75938;BME280;64615;32.062;34.834;2023-07-28T00:05:34;100166.03;;;28.26;56.71
75938;BME280;64615;32.062;34.834;2023-07-28T00:08:01;100166.03;;;28.26;56.70
75938;BME280;64615;32.062;34.834;2023-07-28T00:10:26;100171.19;;;28.28;56.84
75938;BME280;64615;32.062;34.834;2023-07-28T00:12:52;100163.78;;;28.28;56.94
75938;BME280;64615;32.062;34.834;2023-07-28T00:15:18;100161.56;;;28.30;57.76
75938;BME280;64615;32.062;34.834;2023-07-28T00:17:43;100167.03;;;28.30;56.52
75938;BME280;64615;32.062;34.834;2023-07-28T00:20:10;100165.09;;;28.31;56.74
75938;BME280;64615;32.062;34.834;2023-07-28T00:22:36;100163.97;;;28.32;56.71
75938;BME280;64615;32.062;34.834;2023-07-28T00:25:02;100165.09;;;28.31;56.89
75938;BME280;64615;32.062;34.834;2023-07-28T00:27:28;100175.72;;;28.32;56.52
75938;BME280;64615;32.062;34.834;2023-07-28T00:29:53;100174.91;;;28.32;57.07
75938;BME280;64615;32.062;34.834;2023-07-28T00:32:19;100173.50;;;28.34;56.76
75938;BME280;64615;32.062;34.834;2023-07-28T00:34:46;100178.78;;;28.31;57.22
75938;BME280;64615;32.062;34.834;2023-07-28T00:37:11;100180.72;;;28.30;57.15
75938;BME280;64615;32.062;34.834;2023-07-28T00:39:37;100181.00;;;28.29;56.91
75938;BME280;64615;32.062;34.834;2023-07-28T00:42:03;100175.53;;;28.29;57.37
75938;BME280;64615;32.062;34.834;2023-07-28T00:44:29;100167.63;;;28.27;57.08
75938;BME280;64615;32.062;34.834;2023-07-28T00:46:54;100177.75;;;28.27;57.00
75938;BME280;64615;32.062;34.834;2023-07-28T00:49:21;100175.38;;;28.25;57.16
75938;BME280;64615;32.062;34.834;2023-07-28T00:51:46;100179.72;;;28.26;57.25
75938;BME280;64615;32.062;34.834;2023-07-28T00:54:12;100178.91;;;28.26;57.21
75938;BME280;64615;32.062;34.834;2023-07-28T00:56:38;100184.69;;;28.24;57.78
75938;BME280;64615;32.062;34.834;2023-07-28T00:59:04;100174.56;;;28.25;57.49
75938;BME280;64615;32.062;34.834;2023-07-28T01:01:30;100180.03;;;28.25;57.33
75938;BME280;64615;32.062;34.834;2023-07-28T01:03:55;100181.13;;;28.23;57.39
75938;BME280;64615;32.062;34.834;2023-07-28T01:06:29;100184.38;;;28.26;57.85
75938;BME280;64615;32.062;34.834;2023-07-28T01:09:06;100187.31;;;28.29;57.01
75938;BME280;64615;32.062;34.834;2023-07-28T01:11:35;100187.00;;;28.31;56.56
75938;BME280;64615;32.062;34.834;2023-07-28T01:14:00;100181.19;;;28.32;57.41
75938;BME280;64615;32.062;34.834;2023-07-28T01:16:26;100187.50;;;28.33;57.21
75938;BME280;64615;32.062;34.834;2023-07-28T01:18:52;100181.19;;;28.32;57.20
75938;BME280;64615;32.062;34.834;2023-07-28T01:21:21;100178.47;;;28.32;57.52
75938;BME280;64615;32.062;34.834;2023-07-28T01:26:37;100188.28;;;28.33;57.14
75938;BME280;64615;32.062;34.834;2023-07-28T01:29:04;100185.56;;;28.33;57.35
75938;BME280;64615;32.062;34.834;2023-07-28T01:31:31;100185.56;;;28.33;56.98
75938;BME280;64615;32.062;34.834;2023-07-28T01:33:57;100189.91;;;28.34;57.37
75938;BME280;64615;32.062;34.834;2023-07-28T01:36:23;100194.59;;;28.34;57.32
75938;BME280;64615;32.062;34.834;2023-07-28T01:38:48;100198.75;;;28.31;57.26
75938;BME280;64615;32.062;34.834;2023-07-28T01:41:14;100209.19;;;28.29;57.54
75938;BME280;64615;32.062;34.834;2023-07-28T01:43:40;100214.97;;;28.28;57.51
75938;BME280;64615;32.062;34.834;2023-07-28T01:46:07;100210.94;;;28.25;57.53
75938;BME280;64615;32.062;34.834;2023-07-28T01:48:33;100205.47;;;28.25;57.78
75938;BME280;64615;32.062;34.834;2023-07-28T01:50:58;100210.13;;;28.25;57.55
75938;BME280;64615;32.062;34.834;2023-07-28T01:53:24;100205.78;;;28.23;57.49
75938;BME280;64615;32.062;34.834;2023-07-28T01:55:50;100212.88;;;28.25;57.47
75938;BME280;64615;32.062;34.834;2023-07-28T01:58:15;100209.84;;;28.26;57.75
75938;BME280;64615;32.062;34.834;2023-07-28T02:00:41;100215.91;;;28.23;57.64
75938;BME280;64615;32.062;34.834;2023-07-28T02:03:06;100218.66;;;28.23;57.42
75938;BME280;64615;32.062;34.834;2023-07-28T02:05:32;100215.09;;;28.22;57.40
75938;BME280;64615;32.062;34.834;2023-07-28T02:07:58;100218.16;;;28.21;57.31
75938;BME280;64615;32.062;34.834;2023-07-28T02:10:26;100221.69;;;28.21;57.58
75938;BME280;64615;32.062;34.834;2023-07-28T02:12:52;100232.31;;;28.23;57.61
75938;BME280;64615;32.062;34.834;2023-07-28T02:15:17;100233.16;;;28.23;57.55
75938;BME280;64615;32.062;34.834;2023-07-28T02:17:43;100232.03;;;28.25;57.28
75938;BME280;64615;32.062;34.834;2023-07-28T02:20:09;100231.72;;;28.26;57.41
75938;BME280;64615;32.062;34.834;2023-07-28T02:22:38;100239.72;;;28.22;57.46
75938;BME280;64615;32.062;34.834;2023-07-28T02:25:04;100240.06;;;28.21;57.39
75938;BME280;64615;32.062;34.834;2023-07-28T02:27:30;100241.97;;;28.20;57.39
75938;BME280;64615;32.062;34.834;2023-07-28T02:29:56;100239.25;;;28.20;57.47
75938;BME280;64615;32.062;34.834;2023-07-28T02:32:21;100240.34;;;28.19;57.54
75938;BME280;64615;32.062;34.834;2023-07-28T02:34:47;100240.34;;;28.19;57.39
75938;BME280;64615;32.062;34.834;2023-07-28T02:37:14;100247.75;;;28.19;57.56
75938;BME280;64615;32.062;34.834;2023-07-28T02:39:41;100243.38;;;28.18;57.55
75938;BME280;64615;32.062;34.834;2023-07-28T02:42:06;100243.69;;;28.16;57.52
75938;BME280;64615;32.062;34.834;2023-07-28T02:44:32;100247.25;;;28.17;57.53
75938;BME280;64615;32.062;34.834;2023-07-28T02:46:57;100249.97;;;28.17;57.37
75938;BME280;64615;32.062;34.834;2023-07-28T02:49:23;100252.72;;;28.17;57.40
75938;BME280;64615;32.062;34.834;2023-07-28T02:51:49;100248.34;;;28.16;57.33
75938;BME280;64615;32.062;34.834;2023-07-28T02:54:14;100248.34;;;28.16;57.46
75938;BME280;64615;32.062;34.834;2023-07-28T02:56:40;100248.34;;;28.16;57.47
75938;BME280;64615;32.062;34.834;2023-07-28T02:59:05;100249.50;;;28.15;57.42
75938;BME280;64615;32.062;34.834;2023-07-28T03:01:31;100257.69;;;28.15;57.32
75938;BME280;64615;32.062;34.834;2023-07-28T03:04:03;100256.88;;;28.14;57.44
75938;BME280;64615;32.062;34.834;2023-07-28T03:06:29;100258.81;;;28.14;57.41
75938;BME280;64615;32.062;34.834;2023-07-28T03:08:55;100256.06;;;28.14;57.51
75938;BME280;64615;32.062;34.834;2023-07-28T03:11:20;100267.84;;;28.14;57.67
75938;BME280;64615;32.062;34.834;2023-07-28T03:13:46;100267.84;;;28.14;57.49
75938;BME280;64615;32.062;34.834;2023-07-28T03:16:12;100264.59;;;28.12;57.53
75938;BME280;64615;32.062;34.834;2023-07-28T03:18:37;100269.47;;;28.15;57.50
75938;BME280;64615;32.062;34.834;2023-07-28T03:21:03;100275.94;;;28.19;57.53
75938;BME280;64615;32.062;34.834;2023-07-28T03:23:29;100276.41;;;28.21;57.34
75938;BME280;64615;32.062;34.834;2023-07-28T03:25:55;100276.13;;;28.23;57.36
75938;BME280;64615;32.062;34.834;2023-07-28T03:28:20;100282.41;;;28.23;57.18
75938;BME280;64615;32.062;34.834;2023-07-28T03:30:46;100284.34;;;28.23;57.14
75938;BME280;64615;32.062;34.834;2023-07-28T03:33:11;100281.31;;;28.25;57.12
75938;BME280;64615;32.062;34.834;2023-07-28T03:35:37;100287.59;;;28.25;57.11
75938;BME280;64615;32.062;34.834;2023-07-28T03:38:03;100287.25;;;28.27;57.11
75938;BME280;64615;32.062;34.834;2023-07-28T03:40:28;100290.50;;;28.29;56.97
75938;BME280;64615;32.062;34.834;2023-07-28T03:42:54;100297.91;;;28.28;57.10
75938;BME280;64615;32.062;34.834;2023-07-28T03:45:20;100292.13;;;28.30;57.20
75938;BME280;64615;32.062;34.834;2023-07-28T03:47:46;100298.91;;;28.32;56.91
75938;BME280;64615;32.062;34.834;2023-07-28T03:50:11;100299.44;;;28.34;56.95
75938;BME280;64615;32.062;34.834;2023-07-28T03:52:37;100310.91;;;28.36;56.90
75938;BME280;64615;32.062;34.834;2023-07-28T03:55:03;100305.91;;;28.38;56.96
75938;BME280;64615;32.062;34.834;2023-07-28T03:57:29;100313.00;;;28.39;56.91
75938;BME280;64615;32.062;34.834;2023-07-28T03:59:54;100312.72;;;28.41;56.64
75938;BME280;64615;32.062;34.834;2023-07-28T04:02:20;100313.19;;;28.43;56.64
75938;BME280;64615;32.062;34.834;2023-07-28T04:04:46;100308.22;;;28.45;56.66
75938;BME280;64615;32.062;34.834;2023-07-28T04:07:12;100315.00;;;28.47;56.53
75938;BME280;64615;32.062;34.834;2023-07-28T04:09:37;100314.72;;;28.49;56.56
75938;BME280;64615;32.062;34.834;2023-07-28T04:12:03;100312.47;;;28.51;56.46
75938;BME280;64615;32.062;34.834;2023-07-28T04:14:29;100311.84;;;28.54;56.20
75938;BME280;64615;32.062;34.834;2023-07-28T04:16:55;100310.44;;;28.56;56.30
75938;BME280;64615;32.062;34.834;2023-07-28T04:19:20;100316.09;;;28.60;56.07
75938;BME280;64615;32.062;34.834;2023-07-28T04:21:46;100320.47;;;28.61;56.19
75938;BME280;64615;32.062;34.834;2023-07-28T04:24:11;100324.19;;;28.65;56.15
75938;BME280;64615;32.062;34.834;2023-07-28T04:26:37;100319.72;;;28.69;56.03
75938;BME280;64615;32.062;34.834;2023-07-28T04:29:03;100318.03;;;28.73;56.05
75938;BME280;64615;32.062;34.834;2023-07-28T04:31:29;100325.63;;;28.76;55.92
75938;BME280;64615;32.062;34.834;2023-07-28T04:33:54;100324.50;;;28.77;55.90
75938;BME280;64615;32.062;34.834;2023-07-28T04:36:20;100326.91;;;28.79;55.91
75938;BME280;64615;32.062;34.834;2023-07-28T04:38:46;100331.81;;;28.82;55.80
75938;BME280;64615;32.062;34.834;2023-07-28T04:41:11;100333.44;;;28.83;55.76
75938;BME280;64615;32.062;34.834;2023-07-28T04:43:37;100329.56;;;28.84;55.54
75938;BME280;64615;32.062;34.834;2023-07-28T04:46:02;100332.69;;;28.91;55.35
75938;BME280;64615;32.062;34.834;2023-07-28T04:48:28;100329.34;;;28.94;55.41
75938;BME280;64615;32.062;34.834;2023-07-28T04:50:54;100329.00;;;28.95;55.22
75938;BME280;64615;32.062;34.834;2023-07-28T04:53:20;100330.94;;;28.95;55.25
75938;BME280;64615;32.062;34.834;2023-07-28T04:55:45;100327.06;;;28.96;55.08
75938;BME280;64615;32.062;34.834;2023-07-28T04:58:11;100324.84;;;28.98;55.29
75938;BME280;64615;32.062;34.834;2023-07-28T05:00:37;100326.13;;;29.00;55.15
75938;BME280;64615;32.062;34.834;2023-07-28T05:03:02;100334.06;;;29.02;55.25
75938;BME280;64615;32.062;34.834;2023-07-28T05:05:31;100333.41;;;29.05;55.33
75938;BME280;64615;32.062;34.834;2023-07-28T05:07:56;100335.84;;;29.06;55.29
75938;BME280;64615;32.062;34.834;2023-07-28T05:10:22;100340.75;;;29.10;55.14
75938;BME280;64615;32.062;34.834;2023-07-28T05:12:47;100338.19;;;29.13;54.79
75938;BME280;64615;32.062;34.834;2023-07-28T05:15:15;100332.06;;;29.16;54.89
75938;BME280;64615;32.062;34.834;2023-07-28T05:17:41;100335.59;;;29.17;55.13
75938;BME280;64615;32.062;34.834;2023-07-28T05:20:07;100336.25;;;29.14;55.13
75938;BME280;64615;32.062;34.834;2023-07-28T05:22:32;100333.00;;;29.12;55.28
75938;BME280;64615;32.062;34.834;2023-07-28T05:24:58;100341.91;;;29.17;55.04
75938;BME280;64615;32.062;34.834;2023-07-28T05:27:23;100333.19;;;29.15;55.13
75938;BME280;64615;32.062;34.834;2023-07-28T05:29:49;100331.25;;;29.16;55.02
75938;BME280;64615;32.062;34.834;2023-07-28T05:32:15;100340.78;;;29.18;55.26
75938;BME280;64615;32.062;34.834;2023-07-28T05:34:44;100333.84;;;29.21;54.84
75938;BME280;64615;32.062;34.834;2023-07-28T05:37:10;100336.28;;;29.22;54.95
75938;BME280;64615;32.062;34.834;2023-07-28T05:39:36;100338.44;;;29.25;55.19
75938;BME280;64615;32.062;34.834;2023-07-28T05:42:01;100334.06;;;29.24;54.79
75938;BME280;64615;32.062;34.834;2023-07-28T05:44:27;100333.25;;;29.24;55.12
75938;BME280;64615;32.062;34.834;2023-07-28T05:46:53;100338.72;;;29.24;54.66
75938;BME280;64615;32.062;34.834;2023-07-28T05:49:19;100337.63;;;29.25;54.99
75938;BME280;64615;32.062;34.834;2023-07-28T05:51:45;100341.16;;;29.25;55.24
75938;BME280;64615;32.062;34.834;2023-07-28T05:54:12;100337.91;;;29.23;55.26
75938;BME280;64615;32.062;34.834;2023-07-28T05:56:40;100332.63;;;29.27;55.41
75938;BME280;64615;32.062;34.834;2023-07-28T05:59:06;100342.78;;;29.26;55.15
75938;BME280;64615;32.062;34.834;2023-07-28T06:01:31;100334.88;;;29.25;55.15
75938;BME280;64615;32.062;34.834;2023-07-28T06:03:58;100344.69;;;29.26;55.41
75938;BME280;64615;32.062;34.834;2023-07-28T06:06:25;100341.16;;;29.25;55.10
75938;BME280;64615;32.062;34.834;2023-07-28T06:08:52;100338.72;;;29.24;55.42
75938;BME280;64615;32.062;34.834;2023-07-28T06:11:18;100347.44;;;29.26;55.16
75938;BME280;64615;32.062;34.834;2023-07-28T06:13:44;100341.47;;;29.24;55.36
75938;BME280;64615;32.062;34.834;2023-07-28T06:16:11;100330.81;;;29.22;54.92
75938;BME280;64615;32.062;34.834;2023-07-28T06:18:37;100336.81;;;29.24;55.47
75938;BME280;64615;32.062;34.834;2023-07-28T06:21:03;100345.84;;;29.25;55.51
75938;BME280;64615;32.062;34.834;2023-07-28T06:23:28;100340.38;;;29.25;55.10
75938;BME280;64615;32.062;34.834;2023-07-28T06:25:54;100337.91;;;29.23;55.45
75938;BME280;64615;32.062;34.834;2023-07-28T06:28:20;100338.72;;;29.24;55.70
75938;BME280;64615;32.062;34.834;2023-07-28T06:30:46;100342.47;;;29.28;55.60
75938;BME280;64615;32.062;34.834;2023-07-28T06:33:11;100339.72;;;29.28;55.25
75938;BME280;64615;32.062;34.834;2023-07-28T06:35:38;100336.16;;;29.27;55.19
75938;BME280;64615;32.062;34.834;2023-07-28T06:38:04;100336.97;;;29.28;55.05
75938;BME280;64615;32.062;34.834;2023-07-28T06:40:30;100334.25;;;29.28;55.34
75938;BME280;64615;32.062;34.834;2023-07-28T06:42:56;100343.59;;;29.27;55.50
75938;BME280;64615;32.062;34.834;2023-07-28T06:45:21;100340.38;;;29.25;55.25
75938;BME280;64615;32.062;34.834;2023-07-28T06:47:47;100338.44;;;29.25;55.53
75938;BME280;64615;32.062;34.834;2023-07-28T06:50:13;100336.47;;;29.26;55.25
75938;BME280;64615;32.062;34.834;2023-07-28T06:52:39;100333.72;;;29.26;55.32
75938;BME280;64615;32.062;34.834;2023-07-28T06:55:05;100337.28;;;29.26;55.54
75938;BME280;64615;32.062;34.834;2023-07-28T06:57:31;100335.34;;;29.27;55.22
75938;BME280;64615;32.062;34.834;2023-07-28T06:59:56;100340.38;;;29.25;55.32
75938;BME280;64615;32.062;34.834;2023-07-28T07:02:22;100343.91;;;29.25;55.42
75938;BME280;64615;32.062;34.834;2023-07-28T07:04:48;100351.31;;;29.25;55.43
75938;BME280;64615;32.062;34.834;2023-07-28T07:07:14;100337.09;;;29.23;55.62
75938;BME280;64615;32.062;34.834;2023-07-28T07:09:40;100347.25;;;29.22;55.54
75938;BME280;64615;32.062;34.834;2023-07-28T07:12:08;100337.41;;;29.21;55.36
75938;BME280;64615;32.062;34.834;2023-07-28T07:14:34;100335.47;;;29.22;55.56
75938;BME280;64615;32.062;34.834;2023-07-28T07:16:59;100328.38;;;29.21;55.54
75938;BME280;64615;32.062;34.834;2023-07-28T07:19:25;100333.84;;;29.21;55.31
75938;BME280;64615;32.062;34.834;2023-07-28T07:21:51;100327.91;;;29.19;55.45
75938;BME280;64615;32.062;34.834;2023-07-28T07:24:16;100325.16;;;29.19;55.30
75938;BME280;64615;32.062;34.834;2023-07-28T07:26:42;100334.19;;;29.19;55.32
75938;BME280;64615;32.062;34.834;2023-07-28T07:29:08;100326.78;;;29.20;55.43
75938;BME280;64615;32.062;34.834;2023-07-28T07:31:35;100328.38;;;29.21;55.47
75938;BME280;64615;32.062;34.834;2023-07-28T07:34:00;100337.75;;;29.20;55.48
75938;BME280;64615;32.062;34.834;2023-07-28T07:36:26;100328.72;;;29.19;55.25
75938;BME280;64615;32.062;34.834;2023-07-28T07:38:52;100330.63;;;29.19;55.57
75938;BME280;64615;32.062;34.834;2023-07-28T07:41:18;100325.16;;;29.19;55.48
75938;BME280;64615;32.062;34.834;2023-07-28T07:43:51;100329.53;;;29.20;55.51
75938;BME280;64615;32.062;34.834;2023-07-28T07:46:18;100326.44;;;29.21;55.57
75938;BME280;64615;32.062;34.834;2023-07-28T07:48:47;100331.44;;;29.19;55.23
75938;BME280;64615;32.062;34.834;2023-07-28T07:51:13;100335.00;;;29.20;55.25
75938;BME280;64615;32.062;34.834;2023-07-28T07:53:39;100325.97;;;29.19;55.20
75938;BME280;64615;32.062;34.834;2023-07-28T07:56:06;100326.78;;;29.20;55.31
75938;BME280;64615;32.062;34.834;2023-07-28T07:58:32;100325.97;;;29.19;55.59
75938;BME280;64615;32.062;34.834;2023-07-28T08:00:58;100329.53;;;29.20;55.51
75938;BME280;64615;32.062;34.834;2023-07-28T08:03:24;100332.25;;;29.20;55.24
75938;BME280;64615;32.062;34.834;2023-07-28T08:05:53;100323.53;;;29.18;55.37
75938;BME280;64615;32.062;34.834;2023-07-28T08:08:19;100321.09;;;29.16;55.14
75938;BME280;64615;32.062;34.834;2023-07-28T08:10:48;100326.56;;;29.16;55.50
75938;BME280;64615;32.062;34.834;2023-07-28T08:13:14;100324.97;;;29.15;55.46
75938;BME280;64615;32.062;34.834;2023-07-28T08:15:42;100324.66;;;29.17;55.46
75938;BME280;64615;32.062;34.834;2023-07-28T08:18:08;100322.25;;;29.15;55.31
75938;BME280;64615;32.062;34.834;2023-07-28T08:20:33;100325.28;;;29.14;55.19
75938;BME280;64615;32.062;34.834;2023-07-28T08:22:59;100318.19;;;29.13;55.37
75938;BME280;64615;32.062;34.834;2023-07-28T08:25:25;100326.41;;;29.13;55.43
75938;BME280;64615;32.062;34.834;2023-07-28T08:27:50;100320.91;;;29.13;55.49
75938;BME280;64615;32.062;34.834;2023-07-28T08:30:16;100314.63;;;29.12;55.33
75938;BME280;64615;32.062;34.834;2023-07-28T08:32:42;100322.03;;;29.12;55.27
75938;BME280;64615;32.062;34.834;2023-07-28T08:35:09;100322.84;;;29.12;55.42
75938;BME280;64615;32.062;34.834;2023-07-28T08:37:34;100317.38;;;29.12;55.71
75938;BME280;64615;32.062;34.834;2023-07-28T08:40:00;100313.81;;;29.12;55.18
75938;BME280;64615;32.062;34.834;2023-07-28T08:42:29;100318.47;;;29.11;55.41
75938;BME280;64615;32.062;34.834;2023-07-28T08:44:55;100315.75;;;29.11;55.34
75938;BME280;64615;32.062;34.834;2023-07-28T08:47:20;100314.09;;;29.10;55.41
75938;BME280;64615;32.062;34.834;2023-07-28T08:49:47;100321.22;;;29.11;55.30
75938;BME280;64615;32.062;34.834;2023-07-28T08:52:15;100322.84;;;29.12;55.33
75938;BME280;64615;32.062;34.834;2023-07-28T08:54:41;100319.59;;;29.10;55.42
75938;BME280;64615;32.062;34.834;2023-07-28T08:57:09;100311.69;;;29.09;55.46
75938;BME280;64615;32.062;34.834;2023-07-28T08:59:35;100315.25;;;29.09;55.62
75938;BME280;64615;32.062;34.834;2023-07-28T09:02:01;100310.06;;;29.08;55.32
75938;BME280;64615;32.062;34.834;2023-07-28T09:04:27;100311.19;;;29.06;55.72
75938;BME280;64615;32.062;34.834;2023-07-28T09:06:53;100313.94;;;29.06;55.35
75938;BME280;64615;32.062;34.834;2023-07-28T09:09:21;100306.81;;;29.05;55.53
75938;BME280;64615;32.062;34.834;2023-07-28T09:11:54;100310.06;;;29.08;55.52
75938;BME280;64615;32.062;34.834;2023-07-28T09:14:21;100304.09;;;29.05;55.48
75938;BME280;64615;32.062;34.834;2023-07-28T09:16:49;100304.91;;;29.06;55.68
75938;BME280;64615;32.062;34.834;2023-07-28T09:19:15;100307.97;;;29.04;55.81
75938;BME280;64615;32.062;34.834;2023-07-28T09:21:43;100311.00;;;29.03;55.71
75938;BME280;64615;32.062;34.834;2023-07-28T09:24:11;100308.56;;;29.01;55.42
75938;BME280;64615;32.062;34.834;2023-07-28T09:26:41;100289.41;;;29.01;55.53
75938;BME280;64615;32.062;34.834;2023-07-28T09:29:22;100294.06;;;29.01;55.57
75938;BME280;64615;32.062;34.834;2023-07-28T09:31:49;100296.81;;;29.01;55.66
75938;BME280;64615;32.062;34.834;2023-07-28T09:34:26;100294.06;;;29.01;55.63
75938;BME280;64615;32.062;34.834;2023-07-28T09:36:56;100301.16;;;29.02;55.83
75938;BME280;64615;32.062;34.834;2023-07-28T09:39:22;100293.75;;;29.02;55.68
75938;BME280;64615;32.062;34.834;2023-07-28T09:41:48;100295.19;;;29.00;55.68
75938;BME280;64615;32.062;34.834;2023-07-28T09:44:14;100294.41;;;28.99;55.72
75938;BME280;64615;32.062;34.834;2023-07-28T09:46:56;100292.78;;;28.98;55.61
75938;BME280;64615;32.062;34.834;2023-07-28T09:49:35;100284.22;;;29.00;55.73
75938;BME280;64615;32.062;34.834;2023-07-28T09:52:06;100293.25;;;29.00;55.64
75938;BME280;64615;32.062;34.834;2023-07-28T09:54:40;100283.44;;;28.99;55.92
75938;BME280;64615;32.062;34.834;2023-07-28T09:57:19;100286.97;;;29.00;55.88
75938;BME280;64615;32.062;34.834;2023-07-28T09:59:47;100283.44;;;28.99;55.82
75938;BME280;64615;32.062;34.834;2023-07-28T10:02:13;100286.97;;;29.00;55.55
75938;BME280;64615;32.062;34.834;2023-07-28T10:04:39;100284.22;;;29.00;55.53
75938;BME280;64615;32.062;34.834;2023-07-28T10:07:07;100278.72;;;29.00;55.67
75938;BME280;64615;32.062;34.834;2023-07-28T10:09:33;100275.22;;;28.99;55.69
75938;BME280;64615;32.062;34.834;2023-07-28T10:12:00;100280.69;;;28.99;55.74
75938;BME280;64615;32.062;34.834;2023-07-28T10:14:27;100278.25;;;28.98;55.70
75938;BME280;64615;32.062;34.834;2023-07-28T10:16:58;100270.03;;;28.98;55.75
75938;BME280;64615;32.062;34.834;2023-07-28T10:19:25;100277.94;;;28.99;55.68
75938;BME280;64615;32.062;34.834;2023-07-28T10:22:07;100277.94;;;28.99;55.65
75938;BME280;64615;32.062;34.834;2023-07-28T10:24:56;100261.50;;;28.99;55.79
75938;BME280;64615;32.062;34.834;2023-07-28T10:27:36;100250.03;;;28.97;55.72
75938;BME280;64615;32.062;34.834;2023-07-28T10:30:03;100258.56;;;28.96;55.80
75938;BME280;64615;32.062;34.834;2023-07-28T10:32:40;100251.97;;;28.97;55.77
75938;BME280;64615;32.062;34.834;2023-07-28T10:37:43;100246.50;;;28.97;55.88
75938;BME280;64615;32.062;34.834;2023-07-28T10:42:57;100241.19;;;29.00;55.87
75938;BME280;64615;32.062;34.834;2023-07-28T10:45:25;100227.00;;;28.98;55.70
75938;BME280;64615;32.062;34.834;2023-07-28T10:47:53;100244.25;;;28.99;55.62
75938;BME280;64615;32.062;34.834;2023-07-28T10:50:21;100242.31;;;28.99;55.60
75938;BME280;64615;32.062;34.834;2023-07-28T10:52:47;100243.44;;;28.98;55.65
75938;BME280;64615;32.062;34.834;2023-07-28T10:55:23;100235.22;;;28.98;55.67
75938;BME280;64615;32.062;34.834;2023-07-28T10:57:50;100222.94;;;28.96;55.68
75938;BME280;64615;32.062;34.834;2023-07-28T11:00:18;100236.34;;;28.97;55.81
75938;BME280;64615;32.062;34.834;2023-07-28T11:02:46;100228.94;;;28.98;55.73
75938;BME280;64615;32.062;34.834;2023-07-28T11:05:21;100225.38;;;28.97;55.75
75938;BME280;64615;32.062;34.834;2023-07-28T11:07:52;100221.81;;;28.97;55.56
75938;BME280;64615;32.062;34.834;2023-07-28T11:10:19;100221.81;;;28.97;55.55
75938;BME280;64615;32.062;34.834;2023-07-28T11:12:48;100224.56;;;28.97;55.72
75938;BME280;64615;32.062;34.834;2023-07-28T11:15:15;100225.69;;;28.96;55.64
75938;BME280;64615;32.062;34.834;2023-07-28T11:17:50;100229.22;;;28.96;55.64
75938;BME280;64615;32.062;34.834;2023-07-28T11:20:23;100229.22;;;28.96;55.72
75938;BME280;64615;32.062;34.834;2023-07-28T11:22:59;100226.50;;;28.96;55.62
75938;BME280;64615;32.062;34.834;2023-07-28T11:25:27;100223.75;;;28.96;55.80
75938;BME280;64615;32.062;34.834;2023-07-28T11:27:54;100214.72;;;28.96;55.87
75938;BME280;64615;32.062;34.834;2023-07-28T11:30:22;100223.75;;;28.96;55.33
75938;BME280;64615;32.062;34.834;2023-07-28T11:32:50;100218.56;;;28.95;55.54
75938;BME280;64615;32.062;34.834;2023-07-28T11:35:17;100217.75;;;28.94;55.86
75938;BME280;64615;32.062;34.834;2023-07-28T11:37:45;100218.91;;;28.93;55.91
75938;BME280;64615;32.062;34.834;2023-07-28T11:40:13;100212.63;;;28.93;55.61
75938;BME280;64615;32.062;34.834;2023-07-28T11:42:40;100212.63;;;28.93;55.57
75938;BME280;64615;32.062;34.834;2023-07-28T11:45:07;100204.06;;;28.94;56.05
75938;BME280;64615;32.062;34.834;2023-07-28T11:47:35;100215.84;;;28.95;55.64
75938;BME280;64615;32.062;34.834;2023-07-28T11:50:00;100210.69;;;28.93;55.52
75938;BME280;64615;32.062;34.834;2023-07-28T11:52:33;100218.91;;;28.93;55.56
75938;BME280;64615;32.062;34.834;2023-07-28T11:55:00;100211.81;;;28.92;55.74
75938;BME280;64615;32.062;34.834;2023-07-28T11:57:27;100212.63;;;28.93;55.77
75938;BME280;64615;32.062;34.834;2023-07-28T11:59:57;100211.00;;;28.92;55.85
75938;BME280;64615;32.062;34.834;2023-07-28T12:02:29;100218.91;;;28.93;55.67
75938;BME280;64615;32.062;34.834;2023-07-28T12:04:56;100205.22;;;28.93;55.80
75938;BME280;64615;32.062;34.834;2023-07-28T12:07:33;100211.81;;;28.92;55.75
75938;BME280;64615;32.062;34.834;2023-07-28T12:10:03;100211.50;;;28.94;55.70
75938;BME280;64615;32.062;34.834;2023-07-28T12:12:39;100207.94;;;28.93;55.42
75938;BME280;64615;32.062;34.834;2023-07-28T12:15:26;100205.22;;;28.93;55.93
75938;BME280;64615;32.062;34.834;2023-07-28T12:18:10;100197.00;;;28.93;55.76
75938;BME280;64615;32.062;34.834;2023-07-28T12:20:54;100200.84;;;28.92;55.61
75938;BME280;64615;32.062;34.834;2023-07-28T12:23:21;100197.81;;;28.94;55.50
75938;BME280;64615;32.062;34.834;2023-07-28T12:25:48;100198.59;;;28.94;55.71
75938;BME280;64615;32.062;34.834;2023-07-28T12:28:15;100189.88;;;28.92;55.74
75938;BME280;64615;32.062;34.834;2023-07-28T12:30:41;100194.25;;;28.93;55.86
75938;BME280;64615;32.062;34.834;2023-07-28T12:33:08;100193.44;;;28.93;55.68
75938;BME280;64615;32.062;34.834;2023-07-28T12:35:34;100194.56;;;28.92;55.54
75938;BME280;64615;32.062;34.834;2023-07-28T12:38:04;100191.31;;;28.90;55.75
75938;BME280;64615;32.062;34.834;2023-07-28T12:40:31;100186.16;;;28.88;55.85
75938;BME280;64615;32.062;34.834;2023-07-28T12:42:58;100182.28;;;28.89;55.81
75938;BME280;64615;32.062;34.834;2023-07-28T12:45:24;100196.31;;;28.88;55.68
75938;BME280;64615;32.062;34.834;2023-07-28T12:47:55;100191.63;;;28.88;55.66